Time;durP1;ratioP1;P1;durP2;ratioP2;P2;SDS_P1;SDS_P2;PMS_P1;PMS_P2;Temp;Humidity;BMP_temperature;BMP_pressure;BME280_temperature;BME280_humidity;BME280_pressure;Samples;Min_cycle;Max_cycle;Signal;HPM_P1;HPM_P2
2021/10/09 00:00:30;;;;;;;21.42;15.68;;;;;;;;;;5008475;28;20045;-68
2021/10/09 00:03:14;;;;;;;20.23;14.77;;;;;;;;;;5007532;28;20029;-67
2021/10/09 00:05:58;;;;;;;21.80;15.52;;;;;;;;;;5003131;28;20076;-67
2021/10/09 00:08:42;;;;;;;25.63;17.15;;;;;;;;;;4999615;28;20559;-64
2021/10/09 00:11:35;;;;;;;21.67;16.98;;;;;;;;;;5000840;28;20053;-65
2021/10/09 00:14:19;;;;;;;24.67;16.58;;;;;;;;;;5008126;28;20144;-65
2021/10/09 00:17:03;;;;;;;22.20;16.05;;;;;;;;;;5007214;28;20153;-67
2021/10/09 00:19:47;;;;;;;26.45;17.20;;;;;;;;;;5004277;28;20064;-67
2021/10/09 00:22:31;;;;;;;24.20;16.35;;;;;;;;;;5002422;28;20029;-66
2021/10/09 00:25:15;;;;;;;24.50;16.27;;;;;;;;;;4998925;28;20041;-61
2021/10/09 00:27:59;;;;;;;23.13;16.27;;;;;;;;;;5006437;28;20449;-61
2021/10/09 00:30:43;;;;;;;21.95;16.27;;;;;;;;;;5004885;28;20591;-63
2021/10/09 00:33:27;;;;;;;22.08;16.08;;;;;;;;;;5009562;28;20044;-61
2021/10/09 00:36:11;;;;;;;24.92;16.70;;;;;;;;;;5002618;28;20748;-61
2021/10/09 00:38:56;;;;;;;21.05;15.80;;;;;;;;;;4997134;28;20528;-65
2021/10/09 00:41:40;;;;;;;27.08;16.63;;;;;;;;;;5005697;28;20040;-63
2021/10/09 00:44:24;;;;;;;18.75;14.80;;;;;;;;;;4993341;28;20026;-62
2021/10/09 00:47:08;;;;;;;20.58;14.85;;;;;;;;;;5010165;28;20036;-69
2021/10/09 00:49:51;;;;;;;24.75;15.68;;;;;;;;;;5001447;28;20124;-67
2021/10/09 00:52:36;;;;;;;21.58;15.77;;;;;;;;;;5001825;28;20049;-67
2021/10/09 00:55:22;;;;;;;25.10;15.63;;;;;;;;;;5007606;28;20028;-69
2021/10/09 00:58:07;;;;;;;24.20;16.63;;;;;;;;;;5001220;28;20190;-66
2021/10/09 01:00:51;;;;;;;24.83;17.75;;;;;;;;;;4996131;28;20069;-67
2021/10/09 01:03:35;;;;;;;23.63;16.85;;;;;;;;;;5002139;28;20029;-65
2021/10/09 01:06:19;;;;;;;23.45;16.40;;;;;;;;;;5002132;28;20100;-61
2021/10/09 01:09:04;;;;;;;18.95;14.25;;;;;;;;;;5008646;28;20048;-62
2021/10/09 01:11:48;;;;;;;24.70;17.42;;;;;;;;;;5002656;28;20449;-64
2021/10/09 01:14:31;;;;;;;20.50;15.52;;;;;;;;;;5001917;28;20316;-62
2021/10/09 01:17:15;;;;;;;21.10;15.20;;;;;;;;;;5000174;28;20036;-64
2021/10/09 01:19:59;;;;;;;23.13;16.13;;;;;;;;;;5016157;28;20285;-63
2021/10/09 01:22:45;;;;;;;21.95;14.80;;;;;;;;;;4998531;28;20096;-64
2021/10/09 01:25:29;;;;;;;26.08;18.23;;;;;;;;;;5000619;28;20029;-67
2021/10/09 01:28:13;;;;;;;21.73;15.07;;;;;;;;;;5005922;28;20111;-67
2021/10/09 01:30:57;;;;;;;25.15;15.88;;;;;;;;;;5001375;28;20121;-68
2021/10/09 01:33:41;;;;;;;21.77;15.82;;;;;;;;;;5003671;28;20258;-67
2021/10/09 01:36:29;;;;;;;23.95;16.08;;;;;;;;;;4991901;28;20053;-67
2021/10/09 01:39:15;;;;;;;21.13;14.70;;;;;;;;;;5002702;28;20041;-70
2021/10/09 01:41:59;;;;;;;20.27;15.88;;;;;;;;;;5003456;28;20129;-60
2021/10/09 01:44:42;;;;;;;24.85;15.38;;;;;;;;;;5006252;28;20049;-63
2021/10/09 01:47:26;;;;;;;22.30;15.55;;;;;;;;;;5003163;28;20508;-60
2021/10/09 01:50:11;;;;;;;21.00;15.25;;;;;;;;;;4997978;28;20080;-60
2021/10/09 01:52:54;;;;;;;22.10;15.60;;;;;;;;;;4994942;28;20061;-60
2021/10/09 01:55:39;;;;;;;21.45;14.85;;;;;;;;;;4998527;28;20032;-61
2021/10/09 01:58:23;;;;;;;21.02;15.10;;;;;;;;;;5000222;28;20068;-61
2021/10/09 02:01:07;;;;;;;21.13;14.50;;;;;;;;;;4999397;28;20041;-60
2021/10/09 02:03:51;;;;;;;20.05;13.77;;;;;;;;;;5004373;28;20056;-60
2021/10/09 02:06:35;;;;;;;20.80;14.15;;;;;;;;;;4997198;28;20091;-61
2021/10/09 02:09:19;;;;;;;18.40;14.07;;;;;;;;;;5007842;28;20061;-60
2021/10/09 02:12:03;;;;;;;20.30;14.73;;;;;;;;;;4999494;28;20048;-61
2021/10/09 02:14:52;;;;;;;25.35;17.08;;;;;;;;;;4996921;28;20512;-61
2021/10/09 02:26:44;;;;;;;21.98;15.98;;;;;;;;;;5001666;28;20184;-66
2021/10/09 02:29:28;;;;;;;22.02;15.27;;;;;;;;;;5000245;28;20073;-65
2021/10/09 02:32:12;;;;;;;22.55;16.05;;;;;;;;;;5003052;28;20421;-65
2021/10/09 02:34:56;;;;;;;25.23;16.90;;;;;;;;;;5006203;28;20036;-64
2021/10/09 02:37:40;;;;;;;20.98;15.15;;;;;;;;;;4996706;28;20114;-64
2021/10/09 02:40:25;;;;;;;19.88;14.68;;;;;;;;;;5005102;28;20485;-67
2021/10/09 02:43:09;;;;;;;24.17;16.30;;;;;;;;;;4997417;28;20033;-67
2021/10/09 02:45:52;;;;;;;22.42;15.48;;;;;;;;;;4998206;28;20084;-66
2021/10/09 02:48:37;;;;;;;23.23;15.73;;;;;;;;;;5001742;28;20036;-64
2021/10/09 02:51:21;;;;;;;22.88;16.40;;;;;;;;;;5005801;28;20033;-66
2021/10/09 02:54:05;;;;;;;23.90;15.43;;;;;;;;;;4999999;28;20061;-66
2021/10/09 02:56:49;;;;;;;16.98;13.23;;;;;;;;;;5007273;28;20040;-60
2021/10/09 02:59:33;;;;;;;19.25;13.65;;;;;;;;;;5007217;28;20080;-63
2021/10/09 03:02:17;;;;;;;21.15;14.07;;;;;;;;;;5002618;28;20040;-65
2021/10/09 03:05:05;;;;;;;21.02;15.25;;;;;;;;;;5004002;28;20152;-61
2021/10/09 03:07:49;;;;;;;21.08;15.30;;;;;;;;;;5004768;28;20033;-62
2021/10/09 03:10:33;;;;;;;19.90;15.25;;;;;;;;;;4995273;28;20456;-67
2021/10/09 03:13:17;;;;;;;24.65;16.73;;;;;;;;;;4996530;28;20583;-67
2021/10/09 03:16:01;;;;;;;20.02;14.80;;;;;;;;;;4995007;28;20666;-66
2021/10/09 03:18:45;;;;;;;19.48;14.80;;;;;;;;;;5006515;28;20639;-67
2021/10/09 03:21:29;;;;;;;19.23;13.93;;;;;;;;;;4990986;28;20045;-66
2021/10/09 03:24:13;;;;;;;21.95;15.40;;;;;;;;;;5002509;28;20041;-66
2021/10/09 03:26:57;;;;;;;18.35;14.20;;;;;;;;;;5007218;28;20392;-67
2021/10/09 03:29:41;;;;;;;25.95;16.10;;;;;;;;;;5002265;28;20033;-66
2021/10/09 03:32:25;;;;;;;23.00;14.10;;;;;;;;;;5005190;28;20080;-62
2021/10/09 03:35:09;;;;;;;20.45;14.70;;;;;;;;;;4998423;28;20029;-63
2021/10/09 03:37:53;;;;;;;17.98;13.52;;;;;;;;;;4999651;28;20482;-63
2021/10/09 03:40:38;;;;;;;24.65;15.80;;;;;;;;;;4990736;28;20040;-62
2021/10/09 03:43:24;;;;;;;26.20;17.42;;;;;;;;;;5005106;28;20075;-62
2021/10/09 03:46:16;;;;;;;22.30;15.38;;;;;;;;;;4995462;28;20038;-62
2021/10/09 03:54:51;;;;;;;22.63;15.38;;;;;;;;;;5005151;28;20029;-67
2021/10/09 03:57:35;;;;;;;20.52;14.07;;;;;;;;;;5006821;28;20044;-66
2021/10/09 04:00:19;;;;;;;21.40;14.85;;;;;;;;;;5009456;28;20560;-66
2021/10/09 04:03:03;;;;;;;25.10;15.35;;;;;;;;;;5000348;28;20040;-66
2021/10/09 04:05:47;;;;;;;22.02;15.23;;;;;;;;;;5002017;28;20037;-65
2021/10/09 04:08:31;;;;;;;25.20;16.38;;;;;;;;;;5009773;28;20069;-61
2021/10/09 04:11:15;;;;;;;18.20;13.90;;;;;;;;;;5006738;28;20119;-65
2021/10/09 04:13:59;;;;;;;24.15;16.48;;;;;;;;;;5010761;28;20500;-68
2021/10/09 04:16:43;;;;;;;19.75;13.13;;;;;;;;;;5002562;28;20076;-66
2021/10/09 04:19:27;;;;;;;21.83;15.63;;;;;;;;;;4998420;28;20476;-65
2021/10/09 04:22:11;;;;;;;20.35;14.05;;;;;;;;;;5009449;28;20115;-65
2021/10/09 04:24:55;;;;;;;20.75;14.80;;;;;;;;;;5010344;28;20643;-67
2021/10/09 04:27:39;;;;;;;22.25;15.32;;;;;;;;;;5000878;28;20088;-60
2021/10/09 04:30:23;;;;;;;21.65;15.55;;;;;;;;;;5003365;28;20056;-61
2021/10/09 04:33:07;;;;;;;21.20;14.45;;;;;;;;;;5013977;28;20072;-62
2021/10/09 04:35:50;;;;;;;22.80;14.80;;;;;;;;;;5007487;28;20028;-61
2021/10/09 04:38:35;;;;;;;20.63;14.48;;;;;;;;;;5002810;28;20080;-61
2021/10/09 04:41:18;;;;;;;18.35;13.18;;;;;;;;;;5000993;28;20619;-60
2021/10/09 04:44:03;;;;;;;22.35;14.55;;;;;;;;;;5005892;28;20041;-71
2021/10/09 04:46:46;;;;;;;22.10;13.80;;;;;;;;;;5005811;28;20044;-64
2021/10/09 04:49:31;;;;;;;22.85;14.32;;;;;;;;;;5006228;28;20076;-65
2021/10/09 04:52:15;;;;;;;21.70;15.00;;;;;;;;;;4994744;28;20042;-65
2021/10/09 04:54:58;;;;;;;20.38;13.82;;;;;;;;;;4999367;28;20032;-63
2021/10/09 04:57:42;;;;;;;23.00;14.80;;;;;;;;;;4996444;28;20049;-67
2021/10/09 05:00:26;;;;;;;19.48;13.48;;;;;;;;;;5006564;28;20420;-64
2021/10/09 05:03:10;;;;;;;20.92;15.07;;;;;;;;;;5008604;28;20029;-69
2021/10/09 05:05:54;;;;;;;23.27;14.68;;;;;;;;;;5000432;28;20121;-70
2021/10/09 05:08:38;;;;;;;22.40;15.13;;;;;;;;;;5010267;28;20177;-69
2021/10/09 05:11:22;;;;;;;20.15;14.40;;;;;;;;;;5002883;28;20028;-68
2021/10/09 05:14:06;;;;;;;21.17;13.80;;;;;;;;;;5000317;28;20096;-69
2021/10/09 05:16:50;;;;;;;22.77;13.63;;;;;;;;;;5004513;28;20037;-69
2021/10/09 05:19:34;;;;;;;20.15;13.73;;;;;;;;;;4999133;28;20057;-66
2021/10/09 05:22:18;;;;;;;20.45;13.63;;;;;;;;;;5001592;28;20585;-71
2021/10/09 05:25:02;;;;;;;19.38;14.13;;;;;;;;;;5004575;28;20045;-67
2021/10/09 05:28:01;;;;;;;20.95;13.23;;;;;;;;;;5005635;28;20076;-69
2021/10/09 05:30:47;;;;;;;22.35;14.43;;;;;;;;;;4998089;28;20600;-67
2021/10/09 05:36:14;;;;;;;22.67;14.88;;;;;;;;;;5009639;28;20044;-68
2021/10/09 05:38:58;;;;;;;20.80;14.70;;;;;;;;;;5006413;28;20087;-66
2021/10/09 05:41:42;;;;;;;20.15;13.82;;;;;;;;;;5002253;28;20045;-67
2021/10/09 05:44:26;;;;;;;20.75;13.98;;;;;;;;;;5006874;28;20477;-68
2021/10/09 05:47:10;;;;;;;22.48;13.57;;;;;;;;;;5005547;28;20705;-65
2021/10/09 05:49:56;;;;;;;22.00;15.70;;;;;;;;;;4997323;28;20508;-67
2021/10/09 05:52:51;;;;;;;24.20;15.07;;;;;;;;;;4997147;28;20129;-67
2021/10/09 05:55:45;;;;;;;20.25;14.85;;;;;;;;;;4997434;28;20041;-67
2021/10/09 06:25:52;;;;;;;19.38;14.93;;;;;;;;;;5004559;28;20076;-66
2021/10/09 06:44:02;;;;;;;23.58;14.50;;;;;;;;;;5001910;28;20127;-61
2021/10/09 07:01:29;;;;;;;20.85;14.52;;;;;;;;;;5004420;28;20084;-70
2021/10/09 07:04:14;;;;;;;23.08;15.63;;;;;;;;;;5005856;28;20028;-69
2021/10/09 07:07:01;;;;;;;20.10;13.07;;;;;;;;;;5010890;28;20065;-70
2021/10/09 07:09:45;;;;;;;17.63;13.75;;;;;;;;;;5006248;28;20053;-71
2021/10/09 07:12:29;;;;;;;18.65;13.10;;;;;;;;;;5016200;28;20050;-63
2021/10/09 07:15:15;;;;;;;23.02;14.98;;;;;;;;;;4997791;28;20631;-60
2021/10/09 07:17:59;;;;;;;28.50;19.25;;;;;;;;;;4988849;28;20607;-59
2021/10/09 07:20:43;;;;;;;16.48;12.65;;;;;;;;;;5004913;28;20356;-59
2021/10/09 07:23:27;;;;;;;19.60;13.68;;;;;;;;;;4997540;28;20029;-59
2021/10/09 07:26:11;;;;;;;22.02;15.15;;;;;;;;;;5008020;28;20443;-59
2021/10/09 07:28:55;;;;;;;24.05;16.58;;;;;;;;;;5010393;28;20275;-71
2021/10/09 07:31:39;;;;;;;19.83;14.93;;;;;;;;;;5006066;28;20393;-62
2021/10/09 07:34:23;;;;;;;22.73;15.52;;;;;;;;;;4994552;28;20038;-59
2021/10/09 07:37:07;;;;;;;24.73;17.17;;;;;;;;;;5007451;28;20025;-61
2021/10/09 07:39:51;;;;;;;25.98;16.15;;;;;;;;;;5010856;28;20036;-60
2021/10/09 07:42:35;;;;;;;22.23;17.30;;;;;;;;;;5005543;28;20060;-62
2021/10/09 07:45:19;;;;;;;25.60;17.98;;;;;;;;;;5009912;28;20105;-63
2021/10/09 07:48:03;;;;;;;25.42;17.67;;;;;;;;;;5003711;28;20144;-72
2021/10/09 07:50:47;;;;;;;50.22;37.83;;;;;;;;;;4994579;28;20091;-61
2021/10/09 07:53:31;;;;;;;29.92;19.15;;;;;;;;;;5004536;28;20531;-64
2021/10/09 07:56:15;;;;;;;24.08;18.70;;;;;;;;;;4990978;28;20206;-61
2021/10/09 07:58:59;;;;;;;26.48;18.58;;;;;;;;;;5005457;28;20443;-61
2021/10/09 08:01:43;;;;;;;27.08;18.48;;;;;;;;;;5000714;28;20520;-61
2021/10/09 08:04:30;;;;;;;23.38;16.25;;;;;;;;;;5010192;28;20025;-63
2021/10/09 08:07:14;;;;;;;23.25;17.65;;;;;;;;;;5010030;28;20389;-67
2021/10/09 08:09:58;;;;;;;22.92;16.15;;;;;;;;;;5003101;28;20504;-63
2021/10/09 08:12:42;;;;;;;27.23;17.40;;;;;;;;;;4996831;28;20089;-64
2021/10/09 08:15:26;;;;;;;24.23;16.13;;;;;;;;;;5015214;28;20029;-61
2021/10/09 08:18:10;;;;;;;21.70;15.95;;;;;;;;;;5004908;28;20041;-62
2021/10/09 08:21:01;;;;;;;22.15;14.48;;;;;;;;;;5007581;28;20036;-64
2021/10/09 08:24:09;;;;;;;26.35;16.80;;;;;;;;;;5004606;28;20032;-62
2021/10/09 08:38:54;;;;;;;27.10;20.38;;;;;;;;;;4999792;28;20196;-64
2021/10/09 08:41:38;;;;;;;28.08;15.98;;;;;;;;;;5008571;28;20091;-62
2021/10/09 08:44:23;;;;;;;22.70;15.73;;;;;;;;;;5005142;28;20420;-64
2021/10/09 08:47:09;;;;;;;23.08;15.27;;;;;;;;;;5001413;28;20044;-63
2021/10/09 08:49:53;;;;;;;22.75;15.57;;;;;;;;;;5004065;28;20515;-63
2021/10/09 08:52:37;;;;;;;18.60;12.85;;;;;;;;;;4999049;28;20037;-64
2021/10/09 08:55:25;;;;;;;31.55;15.80;;;;;;;;;;5009460;28;20077;-62
2021/10/09 08:58:26;;;;;;;25.77;15.77;;;;;;;;;;4998026;28;20110;-65
2021/10/09 09:01:24;;;;;;;24.75;16.45;;;;;;;;;;5000502;28;20087;-62
2021/10/09 09:07:20;;;;;;;20.08;13.68;;;;;;;;;;5002514;28;20041;-58
2021/10/09 09:26:01;;;;;;;18.75;12.85;;;;;;;;;;5002765;28;20115;-59
2021/10/09 09:40:45;;;;;;;19.85;13.93;;;;;;;;;;5002606;28;20099;-62
2021/10/09 09:43:39;;;;;;;20.60;12.32;;;;;;;;;;5002757;28;20040;-63
2021/10/09 09:46:26;;;;;;;16.10;13.05;;;;;;;;;;4998227;28;20907;-63
2021/10/09 09:49:10;;;;;;;19.33;13.13;;;;;;;;;;4995466;28;20085;-63
2021/10/09 09:51:54;;;;;;;18.70;12.90;;;;;;;;;;4997257;28;20025;-61
2021/10/09 09:54:40;;;;;;;17.10;12.73;;;;;;;;;;5002410;28;20041;-60
2021/10/09 09:57:25;;;;;;;17.10;12.23;;;;;;;;;;4993329;28;20093;-66
2021/10/09 10:00:14;;;;;;;18.27;14.30;;;;;;;;;;5001672;28;20105;-65
2021/10/09 10:02:58;;;;;;;18.02;13.75;;;;;;;;;;4999866;28;20032;-65
2021/10/09 10:05:42;;;;;;;17.83;12.75;;;;;;;;;;5004807;28;20056;-66
2021/10/09 10:08:26;;;;;;;18.35;12.43;;;;;;;;;;4996205;28;20409;-66
2021/10/09 10:11:11;;;;;;;16.88;12.77;;;;;;;;;;5002165;28;20033;-67
2021/10/09 10:13:56;;;;;;;18.80;13.80;;;;;;;;;;5002044;28;20092;-66
2021/10/09 10:16:44;;;;;;;15.43;12.55;;;;;;;;;;4996583;28;20118;-64
2021/10/09 10:20:07;;;;;;;15.80;12.65;;;;;;;;;;5005610;28;20025;-61
2021/10/09 10:22:51;;;;;;;17.15;11.95;;;;;;;;;;4946633;29;20046;-61
2021/10/09 10:25:36;;;;;;;16.42;11.45;;;;;;;;;;4937879;28;20039;-62
2021/10/09 10:28:24;;;;;;;14.73;11.13;;;;;;;;;;4946261;28;20589;-62
2021/10/09 10:31:08;;;;;;;18.15;12.45;;;;;;;;;;4947347;28;20082;-64
2021/10/09 10:34:12;;;;;;;14.32;11.50;;;;;;;;;;4947465;29;20661;-62
2021/10/09 10:36:56;;;;;;;17.05;11.23;;;;;;;;;;4945481;29;20066;-71
2021/10/09 10:39:41;;;;;;;58.08;48.10;;;;;;;;;;4948685;28;20066;-70
2021/10/09 10:42:26;;;;;;;18.52;12.07;;;;;;;;;;4945087;28;20069;-70
2021/10/09 10:45:19;;;;;;;16.90;12.43;;;;;;;;;;4947429;28;20114;-70
2021/10/09 10:48:15;;;;;;;14.20;10.43;;;;;;;;;;4941477;28;20129;-69
2021/10/09 10:51:12;;;;;;;18.30;9.95;;;;;;;;;;4947430;28;20082;-61
2021/10/09 10:56:59;;;;;;;15.73;10.10;;;;;;;;;;5006357;28;20041;-67
2021/10/09 10:59:54;;;;;;;17.20;12.63;;;;;;;;;;4998533;28;20038;-69
2021/10/09 11:02:46;;;;;;;16.27;10.38;;;;;;;;;;5000361;28;20120;-68
2021/10/09 11:05:32;;;;;;;14.23;9.65;;;;;;;;;;4997204;28;20038;-68
2021/10/09 11:08:16;;;;;;;17.25;10.40;;;;;;;;;;4997125;28;20133;-66
2021/10/09 11:11:01;;;;;;;13.45;10.23;;;;;;;;;;5005486;28;20390;-66
2021/10/09 11:13:48;;;;;;;14.82;9.70;;;;;;;;;;4996285;28;20360;-70
2021/10/09 11:16:33;;;;;;;15.30;10.02;;;;;;;;;;4994837;28;20037;-71
2021/10/09 11:19:16;;;;;;;16.25;9.43;;;;;;;;;;4996997;28;20041;-73
2021/10/09 11:22:03;;;;;;;12.98;9.70;;;;;;;;;;5000121;28;20238;-71
2021/10/09 11:24:48;;;;;;;15.30;9.70;;;;;;;;;;4995296;28;20087;-71
2021/10/09 11:27:36;;;;;;;16.48;9.45;;;;;;;;;;5005949;28;20033;-71
2021/10/09 11:30:20;;;;;;;12.38;9.00;;;;;;;;;;4982002;28;20042;-64
2021/10/09 11:33:04;;;;;;;12.68;8.98;;;;;;;;;;5005343;28;20055;-65
2021/10/09 11:35:48;;;;;;;15.95;9.63;;;;;;;;;;5003917;28;20033;-61
2021/10/09 11:38:33;;;;;;;16.92;9.80;;;;;;;;;;4996880;28;20184;-62
2021/10/09 11:41:29;;;;;;;36.33;26.50;;;;;;;;;;4995296;28;20088;-63
2021/10/09 11:44:23;;;;;;;11.68;9.20;;;;;;;;;;4988335;28;20069;-61
2021/10/09 11:56:15;;;;;;;13.15;9.05;;;;;;;;;;4994087;28;20040;-72
2021/10/09 11:59:02;;;;;;;17.05;9.18;;;;;;;;;;5007202;28;20028;-69
2021/10/09 12:01:46;;;;;;;14.35;8.95;;;;;;;;;;5001376;28;20564;-69
2021/10/09 12:04:31;;;;;;;20.00;10.43;;;;;;;;;;5008481;28;20033;-66
2021/10/09 12:07:19;;;;;;;14.60;9.30;;;;;;;;;;4997360;28;20162;-61
2021/10/09 12:10:12;;;;;;;15.07;8.70;;;;;;;;;;5003964;28;20113;-63
2021/10/09 12:13:03;;;;;;;17.48;10.30;;;;;;;;;;5003659;28;20448;-58
2021/10/09 12:15:47;;;;;;;15.73;9.13;;;;;;;;;;5005974;28;20076;-62
2021/10/09 12:18:43;;;;;;;15.13;9.48;;;;;;;;;;5005918;28;20029;-63
2021/10/09 12:21:29;;;;;;;15.50;8.70;;;;;;;;;;5006403;28;20505;-61
2021/10/09 12:24:14;;;;;;;14.57;9.80;;;;;;;;;;4998650;28;20037;-63
2021/10/09 12:27:00;;;;;;;15.38;9.60;;;;;;;;;;4999993;28;20431;-69
2021/10/09 12:30:00;;;;;;;17.33;10.50;;;;;;;;;;5004275;28;20081;-70
2021/10/09 12:32:53;;;;;;;17.55;9.43;;;;;;;;;;5003826;28;20113;-70
2021/10/09 12:35:38;;;;;;;14.10;9.00;;;;;;;;;;5003122;28;20033;-69
2021/10/09 12:38:36;;;;;;;16.15;10.27;;;;;;;;;;4998162;28;20042;-70
2021/10/09 12:41:20;;;;;;;13.60;9.15;;;;;;;;;;5005437;28;20037;-62
2021/10/09 12:44:04;;;;;;;15.63;9.38;;;;;;;;;;5005144;28;20041;-70
2021/10/09 12:46:48;;;;;;;16.05;9.00;;;;;;;;;;4995749;28;20702;-69
2021/10/09 12:49:32;;;;;;;12.35;9.35;;;;;;;;;;5007157;28;20052;-69
2021/10/09 12:52:16;;;;;;;15.90;9.63;;;;;;;;;;5006037;28;20040;-70
2021/10/09 12:55:02;;;;;;;17.42;9.65;;;;;;;;;;4999859;28;20041;-68
2021/10/09 12:57:49;;;;;;;17.27;9.18;;;;;;;;;;4988938;28;20125;-70
2021/10/09 13:00:33;;;;;;;15.05;10.57;;;;;;;;;;5004151;28;20056;-71
2021/10/09 13:03:17;;;;;;;19.30;9.32;;;;;;;;;;5014349;28;20248;-62
2021/10/09 13:06:01;;;;;;;11.65;8.45;;;;;;;;;;5008921;28;20084;-63
2021/10/09 13:08:45;;;;;;;17.17;9.23;;;;;;;;;;4996939;28;20064;-62
2021/10/09 13:11:34;;;;;;;21.58;11.00;;;;;;;;;;5001513;28;20037;-64
2021/10/09 13:14:18;;;;;;;21.95;10.35;;;;;;;;;;4997668;28;20529;-64
2021/10/09 13:17:03;;;;;;;13.77;8.88;;;;;;;;;;5007374;28;20489;-63
2021/10/09 13:19:46;;;;;;;14.07;9.70;;;;;;;;;;5003296;28;20024;-62
2021/10/09 13:22:31;;;;;;;16.17;10.00;;;;;;;;;;4994923;28;20065;-61
2021/10/09 13:25:14;;;;;;;16.02;9.60;;;;;;;;;;4996700;28;20080;-60
2021/10/09 13:27:58;;;;;;;19.15;9.38;;;;;;;;;;5001010;28;20116;-60
2021/10/09 13:30:42;;;;;;;15.48;9.80;;;;;;;;;;4996219;28;20034;-61
2021/10/09 13:33:26;;;;;;;16.60;9.38;;;;;;;;;;5004728;28;20033;-60
2021/10/09 13:36:10;;;;;;;15.05;10.20;;;;;;;;;;5007136;28;20379;-61
2021/10/09 13:38:54;;;;;;;19.48;9.45;;;;;;;;;;5002405;28;20057;-61
2021/10/09 13:41:38;;;;;;;16.20;10.18;;;;;;;;;;5006144;28;20036;-61
2021/10/09 13:44:22;;;;;;;17.58;8.85;;;;;;;;;;4999896;28;20041;-61
2021/10/09 13:47:06;;;;;;;14.38;7.65;;;;;;;;;;5003090;28;20029;-61
2021/10/09 13:49:50;;;;;;;16.63;9.38;;;;;;;;;;4997341;28;20038;-63
2021/10/09 13:52:34;;;;;;;16.83;9.00;;;;;;;;;;4999836;28;20087;-65
2021/10/09 13:55:18;;;;;;;13.13;8.73;;;;;;;;;;4997174;28;20087;-62
2021/10/09 13:58:02;;;;;;;11.20;8.52;;;;;;;;;;5004662;28;20080;-60
2021/10/09 14:00:46;;;;;;;15.55;9.20;;;;;;;;;;4999262;28;20085;-61
2021/10/09 14:03:32;;;;;;;14.38;8.55;;;;;;;;;;4991625;28;20185;-61
2021/10/09 14:06:16;;;;;;;15.20;9.25;;;;;;;;;;5000611;28;20141;-60
2021/10/09 14:09:00;;;;;;;15.52;9.55;;;;;;;;;;5014176;28;20041;-61
2021/10/09 14:11:44;;;;;;;18.52;8.82;;;;;;;;;;4998277;28;20084;-62
2021/10/09 14:14:28;;;;;;;15.15;8.05;;;;;;;;;;5005651;28;20041;-61
2021/10/09 14:17:12;;;;;;;14.70;9.38;;;;;;;;;;4991800;28;20073;-64
2021/10/09 14:19:56;;;;;;;15.27;9.30;;;;;;;;;;4999640;28;20075;-66
2021/10/09 14:22:40;;;;;;;21.45;9.65;;;;;;;;;;5002023;28;20041;-65
2021/10/09 14:25:31;;;;;;;16.70;10.10;;;;;;;;;;5004509;28;20072;-64
2021/10/09 14:28:15;;;;;;;15.70;8.35;;;;;;;;;;5002899;28;20480;-66
2021/10/09 14:30:59;;;;;;;16.50;8.63;;;;;;;;;;4995616;28;20457;-65
2021/10/09 14:33:43;;;;;;;16.02;10.05;;;;;;;;;;5003295;28;20036;-61
2021/10/09 14:36:27;;;;;;;13.65;9.48;;;;;;;;;;5004395;28;20032;-64
2021/10/09 14:39:11;;;;;;;12.77;8.02;;;;;;;;;;5007740;28;20083;-62
2021/10/09 14:41:55;;;;;;;16.73;8.10;;;;;;;;;;5001487;28;20100;-62
2021/10/09 14:44:39;;;;;;;15.88;8.88;;;;;;;;;;4995593;28;20141;-62
2021/10/09 15:19:31;;;;;;;13.48;8.60;;;;;;;;;;4995102;28;20037;-67
2021/10/09 15:22:15;;;;;;;13.55;7.50;;;;;;;;;;4999727;28;20045;-67
2021/10/09 15:25:00;;;;;;;12.95;8.00;;;;;;;;;;5002606;28;20029;-67
2021/10/09 15:27:44;;;;;;;15.35;8.70;;;;;;;;;;4998948;28;20044;-66
2021/10/09 15:30:28;;;;;;;12.18;8.30;;;;;;;;;;4998973;28;20593;-68
2021/10/09 15:33:12;;;;;;;15.32;7.95;;;;;;;;;;5005313;28;20044;-68
2021/10/09 15:35:56;;;;;;;11.90;7.45;;;;;;;;;;5002070;28;20032;-70
2021/10/09 15:38:40;;;;;;;11.05;7.32;;;;;;;;;;4998444;28;20029;-69
2021/10/09 15:41:25;;;;;;;12.73;7.35;;;;;;;;;;5000470;28;20033;-69
2021/10/09 15:44:08;;;;;;;12.15;6.95;;;;;;;;;;5006041;28;20082;-69
2021/10/09 15:46:52;;;;;;;11.85;7.28;;;;;;;;;;5002855;28;20061;-62
2021/10/09 15:49:36;;;;;;;16.92;7.18;;;;;;;;;;4999449;28;20033;-65
2021/10/09 15:52:20;;;;;;;12.40;7.35;;;;;;;;;;5002547;28;20500;-65
2021/10/09 15:55:05;;;;;;;12.70;7.38;;;;;;;;;;5001053;28;20443;-65
2021/10/09 15:57:49;;;;;;;13.23;6.32;;;;;;;;;;5008552;28;20037;-65
2021/10/09 16:00:32;;;;;;;12.10;6.93;;;;;;;;;;4999438;28;20582;-65
2021/10/09 16:03:16;;;;;;;10.68;7.65;;;;;;;;;;5005581;28;20068;-64
2021/10/09 16:06:00;;;;;;;14.55;7.30;;;;;;;;;;5008025;28;20036;-64
2021/10/09 16:08:44;;;;;;;14.98;6.75;;;;;;;;;;5005721;28;20030;-60
2021/10/09 16:11:29;;;;;;;12.90;6.57;;;;;;;;;;4997174;28;20029;-60
2021/10/09 16:14:13;;;;;;;14.13;7.57;;;;;;;;;;5002414;28;20041;-61
2021/10/09 16:16:57;;;;;;;10.18;6.05;;;;;;;;;;4998963;28;20185;-60
2021/10/09 16:19:41;;;;;;;17.75;8.52;;;;;;;;;;5000609;28;20033;-61
2021/10/09 16:22:25;;;;;;;14.88;8.13;;;;;;;;;;5003243;28;20033;-60
2021/10/09 16:25:09;;;;;;;14.20;8.13;;;;;;;;;;5010950;28;20032;-69
2021/10/09 16:27:53;;;;;;;13.02;7.55;;;;;;;;;;5001884;28;20091;-66
2021/10/09 16:30:37;;;;;;;14.35;7.80;;;;;;;;;;5004683;28;20037;-66
2021/10/09 16:33:21;;;;;;;15.40;10.52;;;;;;;;;;5006205;28;20072;-66
2021/10/09 16:36:05;;;;;;;17.65;10.85;;;;;;;;;;5006454;28;20041;-65
2021/10/09 16:38:49;;;;;;;11.43;6.85;;;;;;;;;;5003927;28;20032;-65
2021/10/09 16:41:33;;;;;;;16.33;7.85;;;;;;;;;;5008596;28;20331;-66
2021/10/09 16:44:17;;;;;;;14.50;8.20;;;;;;;;;;5005932;28;20060;-64
2021/10/09 16:47:01;;;;;;;14.98;7.63;;;;;;;;;;5011409;28;20032;-65
2021/10/09 16:49:45;;;;;;;11.25;7.78;;;;;;;;;;4992798;28;20496;-65
2021/10/09 16:52:29;;;;;;;11.70;7.43;;;;;;;;;;5003599;28;20489;-64
2021/10/09 16:55:13;;;;;;;14.73;8.05;;;;;;;;;;5006694;28;20243;-65
2021/10/09 16:57:58;;;;;;;11.13;7.20;;;;;;;;;;4997337;28;20389;-66
2021/10/09 17:00:42;;;;;;;15.23;7.80;;;;;;;;;;5000341;28;20093;-62
2021/10/09 17:03:26;;;;;;;11.38;7.38;;;;;;;;;;5003282;28;20065;-60
2021/10/09 17:06:10;;;;;;;13.35;7.82;;;;;;;;;;4999283;28;20519;-62
2021/10/09 17:08:55;;;;;;;11.63;7.35;;;;;;;;;;4999647;28;20089;-59
2021/10/09 17:11:39;;;;;;;12.23;7.72;;;;;;;;;;4999259;28;20536;-63
2021/10/09 17:14:23;;;;;;;15.15;7.72;;;;;;;;;;4997825;28;20496;-59
2021/10/09 17:17:07;;;;;;;12.52;7.72;;;;;;;;;;5004693;28;20041;-61
2021/10/09 17:19:50;;;;;;;13.45;8.38;;;;;;;;;;5009137;28;20032;-64
2021/10/09 17:22:34;;;;;;;14.13;9.65;;;;;;;;;;5000355;28;20033;-61
2021/10/09 17:25:18;;;;;;;16.65;8.93;;;;;;;;;;5005707;28;20036;-62
2021/10/09 17:28:02;;;;;;;14.98;9.20;;;;;;;;;;4998569;28;20338;-62
2021/10/09 17:30:46;;;;;;;14.80;8.25;;;;;;;;;;5002207;28;20478;-60
2021/10/09 17:33:30;;;;;;;12.45;7.93;;;;;;;;;;4998871;28;20535;-60
2021/10/09 17:36:15;;;;;;;13.25;7.05;;;;;;;;;;5001622;28;20033;-64
2021/10/09 17:38:59;;;;;;;15.15;8.60;;;;;;;;;;4996676;28;20068;-61
2021/10/09 17:41:43;;;;;;;13.73;7.95;;;;;;;;;;5001549;28;20558;-61
2021/10/09 17:44:27;;;;;;;18.05;7.78;;;;;;;;;;4999936;28;20147;-62
2021/10/09 17:47:10;;;;;;;16.85;9.05;;;;;;;;;;5005370;28;20032;-61
2021/10/09 17:49:54;;;;;;;16.58;9.50;;;;;;;;;;4998958;28;20029;-62
2021/10/09 17:52:38;;;;;;;14.85;8.73;;;;;;;;;;5014943;28;20105;-63
2021/10/09 17:55:23;;;;;;;17.10;8.75;;;;;;;;;;5008228;28;20049;-63
2021/10/09 17:58:07;;;;;;;16.52;8.65;;;;;;;;;;5008609;28;20037;-67
2021/10/09 18:00:53;;;;;;;12.95;7.85;;;;;;;;;;5002661;28;20045;-67
2021/10/09 18:03:36;;;;;;;12.90;8.15;;;;;;;;;;5009709;28;20491;-68
2021/10/09 18:06:20;;;;;;;13.77;8.65;;;;;;;;;;5007924;28;20040;-68
2021/10/09 18:09:07;;;;;;;14.20;8.45;;;;;;;;;;5005812;28;20079;-66
2021/10/09 18:11:53;;;;;;;14.25;8.40;;;;;;;;;;5006300;28;20107;-68
2021/10/09 18:14:37;;;;;;;14.02;8.98;;;;;;;;;;5007441;28;20121;-60
2021/10/09 18:17:21;;;;;;;12.85;9.68;;;;;;;;;;5007953;28;20263;-60
2021/10/09 18:20:05;;;;;;;17.25;9.85;;;;;;;;;;5008358;28;20029;-60
2021/10/09 18:22:49;;;;;;;15.07;10.35;;;;;;;;;;5002956;28;20033;-62
2021/10/09 18:25:33;;;;;;;18.92;10.50;;;;;;;;;;5013278;28;20115;-63
2021/10/09 18:28:17;;;;;;;15.65;10.10;;;;;;;;;;5008070;28;20032;-61
2021/10/09 18:31:01;;;;;;;17.15;9.43;;;;;;;;;;5008353;28;20110;-62
2021/10/09 18:33:45;;;;;;;15.40;9.60;;;;;;;;;;5001478;28;20040;-60
2021/10/09 18:36:29;;;;;;;15.38;9.73;;;;;;;;;;5007307;28;20388;-61
2021/10/09 18:39:13;;;;;;;16.05;9.68;;;;;;;;;;5007947;28;20036;-62
2021/10/09 18:41:57;;;;;;;16.80;9.43;;;;;;;;;;5008175;28;20057;-59
2021/10/09 18:44:41;;;;;;;14.23;10.05;;;;;;;;;;5007952;28;20041;-61
2021/10/09 18:47:25;;;;;;;15.05;9.88;;;;;;;;;;5003370;28;20453;-60